Time;durP1;ratioP1;P1;durP2;ratioP2;P2;SDS_P1;SDS_P2;PMS_P1;PMS_P2;Temp;Humidity;BMP_temperature;BMP_pressure;BME280_temperature;BME280_humidity;BME280_pressure;Samples;Min_cycle;Max_cycle;Signal;HPM_P1;HPM_P2
2022/05/31 00:02:07;;;;;;;4.43;1.10;;;11.90;90.30;;;;;;6225793;28;20052;-85
2022/05/31 00:05:10;;;;;;;1.83;0.88;;;11.90;90.20;;;;;;6224363;28;20140;-86
2022/05/31 00:08:12;;;;;;;1.85;0.98;;;12.00;90.10;;;;;;6223841;28;20056;-86
2022/05/31 00:11:14;;;;;;;1.38;0.70;;;12.00;90.10;;;;;;6225458;28;20092;-87
2022/05/31 00:14:18;;;;;;;2.80;1.10;;;12.10;90.00;;;;;;6225921;28;20054;-85
2022/05/31 00:17:20;;;;;;;2.40;0.95;;;12.20;89.90;;;;;;6225925;28;20046;-85
2022/05/31 00:20:21;;;;;;;1.65;1.00;;;12.20;89.40;;;;;;6233979;28;20050;-86
2022/05/31 00:23:23;;;;;;;1.83;0.98;;;12.20;89.10;;;;;;6229319;28;20042;-86
2022/05/31 00:26:25;;;;;;;1.20;0.73;;;12.30;89.10;;;;;;6228228;28;20143;-87
2022/05/31 00:29:28;;;;;;;1.35;0.70;;;12.30;89.00;;;;;;6240186;28;20707;-86
2022/05/31 00:32:32;;;;;;;1.70;1.10;;;12.30;88.80;;;;;;6224202;28;20041;-85
2022/05/31 00:35:38;;;;;;;1.58;0.82;;;12.30;88.80;;;;;;6225779;28;20074;-85
2022/05/31 00:38:40;;;;;;;0.60;0.60;;;12.30;88.80;;;;;;6224112;28;20087;-86
2022/05/31 00:41:42;;;;;;;1.30;0.80;;;12.40;88.90;;;;;;6223398;28;20521;-85
2022/05/31 00:44:46;;;;;;;1.88;0.90;;;12.40;88.60;;;;;;6224586;28;20053;-85
2022/05/31 00:47:49;;;;;;;2.70;1.27;;;12.40;88.50;;;;;;6227993;28;20119;-85
2022/05/31 00:50:54;;;;;;;9.75;1.17;;;12.40;88.50;;;;;;6226019;28;20124;-86
2022/05/31 00:54:01;;;;;;;1.50;1.02;;;12.40;88.50;;;;;;6228892;28;20061;-84
2022/05/31 00:57:04;;;;;;;1.90;1.63;;;12.40;88.50;;;;;;6229322;28;20127;-85
2022/05/31 01:00:10;;;;;;;1.35;0.60;;;12.40;88.50;;;;;;6227840;28;20181;-86
2022/05/31 01:03:18;;;;;;;2.40;0.88;;;12.40;88.50;;;;;;6227739;28;20129;-86
2022/05/31 01:06:20;;;;;;;7.50;1.20;;;12.40;88.60;;;;;;6228012;28;20057;-85
2022/05/31 01:09:21;;;;;;;1.67;0.98;;;12.40;88.70;;;;;;6226949;28;20046;-86
2022/05/31 01:12:24;;;;;;;1.13;0.70;;;12.30;88.60;;;;;;6227885;28;20061;-86
2022/05/31 01:15:27;;;;;;;4.05;1.30;;;12.30;88.80;;;;;;6227826;28;20041;-86
2022/05/31 01:18:29;;;;;;;5.28;0.88;;;12.30;88.70;;;;;;6227762;28;20132;-86
2022/05/31 01:21:33;;;;;;;6.53;1.10;;;12.30;88.70;;;;;;6227510;28;20126;-85
2022/05/31 01:24:44;;;;;;;1.35;0.75;;;12.20;88.80;;;;;;6227272;28;20048;-86
2022/05/31 01:27:58;;;;;;;2.88;0.90;;;12.30;89.00;;;;;;6227484;28;20072;-84
2022/05/31 01:31:06;;;;;;;2.58;0.68;;;12.20;88.90;;;;;;6227271;28;20140;-86
2022/05/31 01:34:12;;;;;;;0.93;0.70;;;12.40;88.70;;;;;;6228071;28;20054;-86
2022/05/31 01:37:15;;;;;;;2.85;1.10;;;12.40;88.50;;;;;;6226637;28;20505;-86
2022/05/31 01:40:25;;;;;;;1.77;0.88;;;12.50;88.10;;;;;;6226268;28;20136;-84
2022/05/31 01:43:27;;;;;;;1.80;0.80;;;12.50;87.90;;;;;;6225892;28;20143;-85
2022/05/31 01:46:33;;;;;;;2.65;0.82;;;12.40;88.50;;;;;;6226266;28;20104;-86
2022/05/31 01:49:39;;;;;;;2.47;0.85;;;12.40;88.00;;;;;;6226052;28;20073;-87
2022/05/31 01:52:43;;;;;;;1.88;1.10;;;12.40;88.10;;;;;;6226233;28;20080;-84
2022/05/31 01:55:48;;;;;;;3.45;1.25;;;12.30;88.10;;;;;;6226896;28;20112;-86
2022/05/31 01:58:51;;;;;;;4.25;0.93;;;12.30;88.30;;;;;;6226226;28;20097;-86
2022/05/31 02:01:54;;;;;;;1.13;0.80;;;12.30;88.70;;;;;;6227303;28;20196;-86
2022/05/31 02:04:56;;;;;;;1.20;0.60;;;12.30;88.80;;;;;;6227046;28;20049;-86
2022/05/31 02:08:01;;;;;;;2.20;1.10;;;12.20;89.10;;;;;;6226102;28;20656;-88
2022/05/31 02:11:03;;;;;;;2.50;1.02;;;12.00;89.60;;;;;;6226203;28;20115;-85
2022/05/31 02:14:07;;;;;;;3.25;1.00;;;11.90;90.00;;;;;;6226899;28;20046;-87
2022/05/31 02:17:09;;;;;;;1.40;1.00;;;11.90;90.00;;;;;;6226091;28;20045;-84
2022/05/31 02:20:12;;;;;;;1.50;0.70;;;12.00;90.00;;;;;;6226529;28;20772;-86
2022/05/31 02:23:15;;;;;;;4.05;0.93;;;12.10;90.00;;;;;;6226962;28;20046;-87
2022/05/31 02:26:17;;;;;;;1.58;0.93;;;12.20;89.90;;;;;;6228724;28;20050;-86
2022/05/31 02:29:22;;;;;;;3.70;1.08;;;12.10;89.60;;;;;;6226936;28;20050;-86
2022/05/31 02:32:24;;;;;;;1.52;0.88;;;12.20;89.50;;;;;;6226340;28;20421;-86
2022/05/31 02:35:26;;;;;;;2.95;1.13;;;12.30;89.10;;;;;;6227185;28;20042;-86
2022/05/31 02:38:29;;;;;;;3.45;1.25;;;12.40;88.90;;;;;;6227589;28;20509;-84
2022/05/31 02:41:32;;;;;;;1.63;1.10;;;12.40;88.90;;;;;;6227972;28;20341;-87
2022/05/31 02:44:34;;;;;;;3.53;1.17;;;12.40;88.80;;;;;;6228220;28;20042;-87
2022/05/31 02:47:37;;;;;;;5.45;1.30;;;12.40;88.80;;;;;;6227622;28;20429;-84
2022/05/31 02:50:40;;;;;;;1.50;0.90;;;12.40;88.60;;;;;;6227783;28;20050;-87
2022/05/31 02:53:43;;;;;;;1.42;1.05;;;12.50;88.60;;;;;;6228465;28;20050;-86
2022/05/31 02:56:46;;;;;;;1.17;0.85;;;12.40;88.40;;;;;;6228666;28;20557;-87
2022/05/31 02:59:47;;;;;;;3.50;1.02;;;12.50;88.20;;;;;;6228054;28;20179;-88
2022/05/31 03:02:49;;;;;;;1.20;0.80;;;12.50;88.20;;;;;;6227891;28;20060;-86
2022/05/31 03:05:51;;;;;;;1.92;0.90;;;12.40;88.00;;;;;;6229510;28;20204;-86
2022/05/31 03:08:54;;;;;;;5.18;1.00;;;12.50;88.00;;;;;;6227571;28;20049;-87
2022/05/31 03:11:59;;;;;;;1.33;0.77;;;12.40;88.30;;;;;;6228903;28;20042;-88
2022/05/31 03:15:04;;;;;;;2.22;0.93;;;12.30;88.80;;;;;;6228907;28;20497;-85
2022/05/31 03:18:10;;;;;;;3.55;1.40;;;12.10;88.90;;;;;;6230548;28;20057;-87
2022/05/31 03:21:15;;;;;;;3.47;1.20;;;12.00;89.10;;;;;;6227572;28;20052;-86
2022/05/31 03:24:21;;;;;;;2.28;1.02;;;12.00;89.60;;;;;;6229022;28;20056;-87
2022/05/31 03:27:23;;;;;;;2.38;1.17;;;11.90;89.70;;;;;;6229737;28;20042;-89
2022/05/31 03:30:25;;;;;;;3.67;1.30;;;11.80;89.90;;;;;;6230714;28;20049;-86
2022/05/31 03:33:28;;;;;;;1.38;0.75;;;11.80;90.10;;;;;;6230283;28;20587;-86
2022/05/31 03:36:29;;;;;;;2.22;0.77;;;11.80;90.50;;;;;;6230075;28;20108;-85
2022/05/31 03:39:32;;;;;;;3.08;1.73;;;11.70;90.50;;;;;;6230801;28;20046;-84
2022/05/31 03:42:35;;;;;;;1.58;0.88;;;11.70;91.00;;;;;;6230528;28;20136;-85
2022/05/31 03:45:38;;;;;;;4.28;1.30;;;11.50;91.10;;;;;;6234774;28;20115;-84
2022/05/31 03:48:40;;;;;;;1.42;1.00;;;11.40;91.30;;;;;;6232309;28;20125;-87
2022/05/31 03:51:42;;;;;;;5.53;1.10;;;11.30;91.50;;;;;;6239722;28;20505;-86
2022/05/31 03:54:45;;;;;;;6.93;1.27;;;11.30;91.50;;;;;;6230678;28;20045;-87
2022/05/31 03:57:47;;;;;;;2.60;1.38;;;11.30;91.70;;;;;;6228542;28;20105;-87
2022/05/31 04:00:50;;;;;;;2.80;1.23;;;11.30;92.00;;;;;;6227440;28;20046;-87
2022/05/31 04:03:52;;;;;;;2.90;1.20;;;11.20;92.20;;;;;;6227003;28;20096;-85
2022/05/31 04:06:54;;;;;;;2.88;1.30;;;11.20;92.40;;;;;;6227081;28;20180;-86
2022/05/31 04:09:57;;;;;;;2.05;1.20;;;11.10;92.50;;;;;;6227568;28;20050;-85
2022/05/31 04:12:59;;;;;;;2.45;1.10;;;11.10;92.50;;;;;;6226971;28;20423;-86
2022/05/31 04:16:07;;;;;;;3.72;1.25;;;11.20;92.50;;;;;;6226274;28;20049;-86
2022/05/31 04:19:09;;;;;;;2.17;1.30;;;11.30;92.40;;;;;;6226444;28;20133;-86
2022/05/31 04:22:10;;;;;;;3.72;1.27;;;11.40;92.20;;;;;;6231432;28;20133;-86
2022/05/31 04:25:14;;;;;;;2.17;1.33;;;11.60;92.10;;;;;;6230784;28;20038;-84
2022/05/31 04:28:16;;;;;;;3.22;1.00;;;11.70;92.00;;;;;;6231373;28;20046;-87
2022/05/31 04:31:18;;;;;;;6.82;1.52;;;11.90;91.70;;;;;;6230995;28;20624;-86
2022/05/31 04:34:19;;;;;;;4.78;1.48;;;12.00;91.50;;;;;;6231352;28;20137;-88
2022/05/31 04:37:21;;;;;;;3.47;1.58;;;12.90;90.80;;;;;;6232261;28;20046;-86
2022/05/31 04:40:25;;;;;;;3.88;1.38;;;14.80;86.40;;;;;;6230493;28;20050;-86
2022/05/31 04:43:27;;;;;;;2.05;1.02;;;16.90;79.60;;;;;;6231553;28;20437;-88
2022/05/31 04:46:30;;;;;;;2.55;1.10;;;18.80;72.80;;;;;;6231238;28;20052;-86
2022/05/31 04:49:32;;;;;;;3.25;1.27;;;20.60;66.20;;;;;;6230180;28;20521;-86
2022/05/31 04:52:34;;;;;;;4.32;1.30;;;22.20;60.10;;;;;;6229676;28;20045;-86
2022/05/31 04:55:37;;;;;;;1.02;0.80;;;23.40;54.70;;;;;;6229268;28;20061;-86
2022/05/31 04:58:39;;;;;;;1.55;1.02;;;24.30;51.10;;;;;;6230134;28;20140;-87
2022/05/31 05:01:41;;;;;;;1.60;0.95;;;25.20;47.80;;;;;;6230273;28;20056;-86
2022/05/31 05:04:43;;;;;;;2.25;0.73;;;25.70;44.90;;;;;;6229289;28;20493;-86
2022/05/31 05:07:45;;;;;;;2.65;0.88;;;26.00;43.40;;;;;;6229473;28;20096;-86
2022/05/31 05:10:48;;;;;;;3.90;1.23;;;26.10;42.50;;;;;;6230506;28;20066;-86
2022/05/31 05:13:51;;;;;;;3.70;0.95;;;26.90;41.50;;;;;;6228704;28;20577;-86
2022/05/31 05:16:53;;;;;;;2.20;0.80;;;27.60;40.00;;;;;;6228069;28;20069;-85
2022/05/31 05:19:55;;;;;;;2.40;0.88;;;28.30;38.70;;;;;;6228461;28;20074;-86
2022/05/31 05:22:57;;;;;;;2.60;0.75;;;29.10;37.30;;;;;;6229484;28;20135;-85
2022/05/31 05:26:01;;;;;;;6.15;1.92;;;29.80;35.90;;;;;;6228700;28;20081;-85
2022/05/31 05:32:22;;;;;;;1.40;0.70;;;30.80;34.30;;;;;;6225466;28;20501;-86
2022/05/31 05:35:24;;;;;;;1.95;0.77;;;29.70;34.70;;;;;;6226536;28;20563;-86
2022/05/31 05:38:26;;;;;;;1.90;0.75;;;28.40;35.70;;;;;;6230127;28;20057;-85
2022/05/31 05:41:31;;;;;;;1.05;0.70;;;26.80;37.60;;;;;;6228499;28;20056;-85
2022/05/31 05:44:33;;;;;;;3.92;1.10;;;27.20;37.70;;;;;;6229476;28;20038;-86
2022/05/31 05:47:35;;;;;;;4.82;0.93;;;27.00;37.60;;;;;;6228670;28;20072;-86
2022/05/31 05:50:38;;;;;;;1.98;0.52;;;25.90;38.90;;;;;;6229435;28;20050;-86
2022/05/31 05:53:40;;;;;;;2.85;0.88;;;25.20;40.40;;;;;;6229563;28;20049;-85
2022/05/31 05:56:43;;;;;;;2.42;0.82;;;25.00;41.00;;;;;;6229540;28;20537;-86
2022/05/31 05:59:44;;;;;;;6.32;1.75;;;24.90;41.40;;;;;;6227349;28;20068;-85
2022/05/31 06:02:51;;;;;;;1.05;0.60;;;25.00;40.60;;;;;;6227902;28;20077;-84
2022/05/31 06:05:54;;;;;;;2.17;0.82;;;24.20;41.70;;;;;;6229002;28;20183;-84
2022/05/31 06:09:01;;;;;;;1.70;1.05;;;23.50;43.30;;;;;;6233606;28;20076;-84
2022/05/31 06:12:10;;;;;;;6.45;1.55;;;22.80;44.50;;;;;;6239999;28;20105;-86
2022/05/31 06:15:18;;;;;;;4.05;1.48;;;22.30;45.90;;;;;;6232377;28;20046;-87
2022/05/31 06:18:22;;;;;;;1.45;0.90;;;21.70;47.60;;;;;;6229811;28;20132;-86
2022/05/31 06:21:25;;;;;;;4.97;1.65;;;21.30;48.90;;;;;;6228132;28;20053;-86
2022/05/31 06:24:29;;;;;;;3.40;1.30;;;21.50;49.20;;;;;;6228536;28;20056;-84
2022/05/31 06:27:32;;;;;;;2.13;0.80;;;21.70;48.40;;;;;;6228418;28;20108;-85
2022/05/31 06:30:34;;;;;;;1.98;1.17;;;21.60;48.40;;;;;;6230814;28;20049;-85
2022/05/31 06:33:36;;;;;;;6.20;1.20;;;21.40;49.10;;;;;;6227484;28;20056;-86
2022/05/31 06:36:39;;;;;;;5.43;1.10;;;22.00;48.90;;;;;;6227103;28;20069;-85
2022/05/31 06:39:43;;;;;;;3.22;0.95;;;22.80;46.90;;;;;;6226825;28;20061;-86
2022/05/31 06:42:46;;;;;;;3.53;1.23;;;23.20;45.70;;;;;;6226442;28;20057;-87
2022/05/31 06:45:48;;;;;;;2.75;1.25;;;23.50;45.30;;;;;;6227187;28;20069;-84
2022/05/31 06:48:50;;;;;;;4.60;0.98;;;23.90;44.20;;;;;;6227027;28;20545;-84
2022/05/31 06:58:31;;;;;;;3.92;0.93;;;24.60;43.10;;;;;;6227183;28;20050;-87
2022/05/31 07:01:37;;;;;;;6.13;1.52;;;25.70;41.10;;;;;;6228792;28;20536;-84
2022/05/31 07:04:39;;;;;;;5.85;1.50;;;27.80;38.40;;;;;;6223474;28;20152;-86
2022/05/31 07:07:41;;;;;;;2.10;0.90;;;29.10;36.30;;;;;;6201311;28;20046;-85
2022/05/31 07:10:44;;;;;;;2.63;0.95;;;28.80;36.20;;;;;;6224604;28;20151;-86
2022/05/31 07:13:47;;;;;;;3.63;0.95;;;30.10;34.70;;;;;;6230728;28;20049;-82
2022/05/31 07:16:49;;;;;;;1.33;0.70;;;31.20;33.20;;;;;;6229177;28;20113;-85
2022/05/31 07:19:51;;;;;;;1.98;0.75;;;31.50;32.60;;;;;;6227431;28;20054;-85
2022/05/31 07:22:53;;;;;;;1.75;0.88;;;32.50;31.70;;;;;;6228254;28;20050;-82
2022/05/31 07:25:55;;;;;;;2.25;0.85;;;33.50;30.40;;;;;;6233186;28;20050;-82
2022/05/31 07:28:58;;;;;;;5.38;0.85;;;32.70;30.30;;;;;;6230234;28;20056;-82
2022/05/31 07:32:01;;;;;;;2.38;1.15;;;31.80;31.30;;;;;;6229351;28;20050;-82
2022/05/31 07:35:03;;;;;;;3.75;0.70;;;31.60;31.70;;;;;;6227787;28;20043;-85
2022/05/31 07:38:05;;;;;;;4.40;1.17;;;32.60;31.00;;;;;;6227530;28;20046;-85
2022/05/31 07:41:06;;;;;;;3.90;0.93;;;34.20;29.70;;;;;;6225676;28;20144;-85
2022/05/31 07:44:10;;;;;;;1.98;0.77;;;35.10;28.90;;;;;;6228955;28;20137;-82
2022/05/31 07:47:12;;;;;;;3.47;0.57;;;34.90;29.10;;;;;;6230818;28;20409;-83
2022/05/31 07:50:14;;;;;;;1.13;0.60;;;35.50;28.90;;;;;;6230715;28;20046;-84
2022/05/31 07:53:17;;;;;;;4.30;0.90;;;35.80;28.40;;;;;;6225527;28;20046;-82
2022/05/31 07:56:19;;;;;;;2.03;0.93;;;36.50;28.00;;;;;;6227131;28;20046;-84
2022/05/31 07:59:22;;;;;;;11.32;1.23;;;36.70;27.70;;;;;;6224590;28;20042;-85
2022/05/31 08:02:24;;;;;;;2.33;0.93;;;34.30;28.70;;;;;;6225131;28;20433;-85
2022/05/31 08:05:26;;;;;;;1.05;0.57;;;31.80;30.00;;;;;;6226782;28;20100;-86
2022/05/31 08:08:28;;;;;;;3.70;0.63;;;29.80;31.90;;;;;;6225190;28;20572;-85
2022/05/31 08:11:32;;;;;;;3.60;0.80;;;28.40;33.70;;;;;;6227504;28;20100;-81
2022/05/31 08:14:35;;;;;;;1.02;0.43;;;27.20;35.70;;;;;;6227959;28;20413;-84
2022/05/31 08:17:37;;;;;;;3.00;0.75;;;26.50;37.00;;;;;;6225576;28;20048;-82
2022/05/31 08:20:39;;;;;;;3.40;1.25;;;26.00;37.70;;;;;;6226400;28;20421;-85
2022/05/31 08:23:41;;;;;;;2.60;0.93;;;25.60;38.70;;;;;;6227205;28;20119;-85
2022/05/31 08:26:43;;;;;;;2.47;0.80;;;25.30;39.20;;;;;;6225541;28;20557;-83
2022/05/31 08:29:46;;;;;;;6.68;1.25;;;25.10;39.60;;;;;;6226221;28;20050;-81
2022/05/31 08:32:48;;;;;;;1.58;0.85;;;24.90;40.20;;;;;;6229725;28;20042;-81
2022/05/31 08:35:50;;;;;;;4.40;0.88;;;24.90;40.40;;;;;;6228475;28;20050;-82
2022/05/31 08:38:52;;;;;;;4.80;0.90;;;24.60;41.10;;;;;;6226346;28;20137;-83
2022/05/31 08:42:05;;;;;;;1.63;0.73;;;24.50;41.90;;;;;;6255989;23;20094;-84
2022/05/31 08:45:13;;;;;;;1.40;0.90;;;24.30;42.10;;;;;;6245251;28;20046;-83
2022/05/31 08:48:29;;;;;;;3.13;0.70;;;24.30;42.90;;;;;;6247047;28;20056;-84
2022/05/31 08:51:58;;;;;;;1.02;0.60;;;24.30;43.30;;;;;;6245054;28;20048;-84
2022/05/31 08:58:29;;;;;;;4.00;0.75;;;24.30;43.00;;;;;;6246779;28;20049;-84
2022/05/31 09:01:39;;;;;;;4.40;1.10;;;24.50;43.10;;;;;;6246514;28;20046;-84
2022/05/31 09:04:45;;;;;;;2.03;0.80;;;24.70;42.40;;;;;;6247360;28;20124;-83
2022/05/31 09:07:50;;;;;;;2.15;0.73;;;24.90;41.70;;;;;;6252413;28;20046;-84
2022/05/31 09:11:03;;;;;;;1.80;0.88;;;25.00;41.50;;;;;;6252807;28;20057;-82
2022/05/31 09:14:12;;;;;;;5.95;0.85;;;25.20;41.50;;;;;;6253752;28;20049;-82
2022/05/31 09:17:22;;;;;;;2.45;0.70;;;25.30;41.90;;;;;;6251296;28;20690;-82
2022/05/31 09:20:31;;;;;;;2.17;0.60;;;25.30;42.00;;;;;;6251982;28;20572;-81
2022/05/31 09:23:37;;;;;;;4.38;0.70;;;25.10;42.30;;;;;;6254612;28;20240;-81
2022/05/31 09:26:59;;;;;;;1.67;0.82;;;25.20;43.00;;;;;;6253120;28;20483;-80
2022/05/31 09:30:08;;;;;;;2.97;0.90;;;25.50;41.90;;;;;;6251490;28;20116;-81
2022/05/31 09:33:20;;;;;;;3.95;1.35;;;25.80;41.70;;;;;;6251301;28;20049;-84
2022/05/31 09:36:28;;;;;;;3.20;0.70;;;26.00;40.80;;;;;;6226041;28;20042;-82
2022/05/31 09:39:34;;;;;;;2.97;1.42;;;26.10;40.40;;;;;;6237590;28;20526;-82
2022/05/31 09:42:41;;;;;;;2.38;0.73;;;26.40;40.60;;;;;;6249905;28;20049;-81
2022/05/31 09:45:55;;;;;;;2.75;0.82;;;26.60;37.60;;;;;;6250068;28;20167;-81
2022/05/31 09:48:59;;;;;;;3.70;0.70;;;26.60;38.00;;;;;;6250220;28;20051;-81
2022/05/31 09:52:01;;;;;;;3.03;0.77;;;26.40;38.30;;;;;;6249953;28;20060;-87
2022/05/31 09:58:37;;;;;;;1.45;0.88;;;26.50;37.20;;;;;;6250088;28;20081;-82
2022/05/31 10:01:44;;;;;;;3.20;0.52;;;26.40;37.20;;;;;;6250027;28;20528;-83
2022/05/31 10:04:48;;;;;;;1.67;0.70;;;26.60;38.20;;;;;;6251001;28;20050;-83
2022/05/31 10:07:50;;;;;;;2.63;0.60;;;27.50;38.00;;;;;;6249629;28;20041;-82
2022/05/31 10:10:52;;;;;;;1.20;0.60;;;28.80;34.00;;;;;;6245197;28;20417;-83
2022/05/31 10:14:00;;;;;;;4.68;0.80;;;29.20;34.00;;;;;;6248792;28;20532;-83
2022/05/31 10:17:28;;;;;;;3.40;0.75;;;29.00;34.90;;;;;;6249414;28;20037;-82
2022/05/31 10:20:34;;;;;;;1.63;0.50;;;28.70;34.80;;;;;;6249547;28;20068;-83
2022/05/31 10:23:39;;;;;;;3.38;0.65;;;28.20;35.70;;;;;;6249534;28;20046;-86
2022/05/31 10:26:41;;;;;;;2.13;0.60;;;27.70;36.20;;;;;;6250168;28;20136;-85
2022/05/31 10:29:49;;;;;;;2.65;0.70;;;27.60;36.90;;;;;;6249835;28;20061;-85
2022/05/31 10:32:53;;;;;;;2.58;0.50;;;27.60;37.10;;;;;;6249261;28;20081;-83
2022/05/31 10:36:09;;;;;;;1.88;0.73;;;27.60;37.00;;;;;;6250276;28;20129;-83
2022/05/31 10:39:12;;;;;;;1.85;0.50;;;27.50;36.60;;;;;;6237754;28;20069;-85
2022/05/31 10:42:16;;;;;;;3.00;0.77;;;27.50;36.50;;;;;;6232954;28;20054;-77
2022/05/31 10:45:23;;;;;;;1.35;0.80;;;27.30;37.20;;;;;;6249129;28;20045;-81
2022/05/31 10:48:26;;;;;;;2.50;0.60;;;27.20;37.30;;;;;;6251411;28;20056;-78
2022/05/31 10:51:39;;;;;;;9.52;1.10;;;27.20;36.50;;;;;;6247943;28;20057;-77
2022/05/31 10:55:13;;;;;;;5.53;0.80;;;27.70;36.40;;;;;;6250066;28;20148;-80
2022/05/31 10:58:42;;;;;;;3.28;0.80;;;28.60;35.00;;;;;;6248585;28;20049;-79
2022/05/31 11:02:01;;;;;;;3.65;0.73;;;29.00;35.00;;;;;;6248363;28;20049;-79
2022/05/31 11:05:08;;;;;;;4.45;0.52;;;29.50;33.60;;;;;;6248508;28;20049;-81
2022/05/31 11:11:54;;;;;;;2.95;0.57;;;30.20;32.00;;;;;;6248204;28;20528;-80
2022/05/31 11:15:06;;;;;;;4.50;0.50;;;30.60;31.20;;;;;;6241257;28;20085;-81
2022/05/31 11:18:22;;;;;;;1.35;0.40;;;30.90;30.10;;;;;;6225610;28;20050;-81
2022/05/31 11:21:40;;;;;;;4.43;0.60;;;31.00;29.70;;;;;;6224585;28;20213;-82
2022/05/31 11:24:58;;;;;;;1.27;0.30;;;31.40;29.00;;;;;;6234107;28;20078;-81
2022/05/31 11:28:12;;;;;;;1.67;0.40;;;31.60;28.40;;;;;;6249036;28;20124;-80
2022/05/31 11:31:26;;;;;;;1.75;0.52;;;31.70;28.50;;;;;;6247066;28;20860;-79
2022/05/31 11:34:40;;;;;;;3.10;0.60;;;31.90;28.80;;;;;;6248506;28;20053;-79
2022/05/31 11:37:56;;;;;;;3.00;0.35;;;32.10;28.40;;;;;;6252270;28;20049;-81
2022/05/31 11:41:07;;;;;;;2.95;0.55;;;32.30;28.50;;;;;;6249271;28;20417;-79
2022/05/31 11:44:41;;;;;;;1.42;0.40;;;32.50;28.20;;;;;;6250068;28;20069;-79
2022/05/31 11:48:08;;;;;;;3.55;0.32;;;32.40;28.10;;;;;;6251860;28;20124;-80
2022/05/31 11:51:24;;;;;;;3.58;0.35;;;32.30;28.20;;;;;;6250681;28;20052;-79
2022/05/31 11:58:27;;;;;;;1.45;0.50;;;31.80;28.10;;;;;;6247680;28;20041;-79
2022/05/31 12:01:36;;;;;;;1.70;0.50;;;31.50;28.30;;;;;;6247333;28;20112;-79
2022/05/31 12:04:43;;;;;;;1.77;0.50;;;31.20;28.20;;;;;;6247257;28;20053;-80
2022/05/31 12:07:51;;;;;;;1.75;0.35;;;31.20;28.70;;;;;;6248574;28;20187;-80
2022/05/31 12:10:56;;;;;;;2.30;0.50;;;31.40;28.70;;;;;;6248716;28;20417;-79
2022/05/31 12:14:00;;;;;;;1.02;0.40;;;31.70;28.00;;;;;;6248604;28;20053;-79
2022/05/31 12:17:03;;;;;;;2.50;0.40;;;31.90;28.10;;;;;;6247086;28;20493;-79
2022/05/31 12:20:14;;;;;;;2.63;0.45;;;32.00;28.00;;;;;;6246379;28;20123;-81
2022/05/31 12:23:26;;;;;;;4.18;0.80;;;32.20;27.40;;;;;;6247032;28;20053;-81
2022/05/31 12:26:33;;;;;;;5.38;0.50;;;32.10;27.40;;;;;;6248265;28;20187;-79
2022/05/31 12:29:44;;;;;;;1.52;0.68;;;32.30;27.30;;;;;;6248045;28;20069;-79
2022/05/31 12:32:48;;;;;;;3.83;0.90;;;32.10;27.70;;;;;;6246962;28;20048;-80
2022/05/31 12:35:56;;;;;;;5.30;0.38;;;31.90;27.60;;;;;;6247443;28;20049;-79
2022/05/31 12:39:05;;;;;;;2.28;0.65;;;31.70;27.60;;;;;;6248070;28;20053;-80
2022/05/31 12:42:36;;;;;;;1.77;0.50;;;31.60;27.50;;;;;;6265927;23;20052;-79
2022/05/31 12:45:42;;;;;;;2.95;0.63;;;31.50;28.10;;;;;;6252749;28;20046;-79
2022/05/31 12:48:55;;;;;;;1.55;0.50;;;31.70;28.30;;;;;;6252107;28;20092;-79
2022/05/31 12:55:58;;;;;;;0.82;0.22;;;32.00;27.90;;;;;;6242760;28;20041;-80
2022/05/31 12:59:01;;;;;;;2.17;0.40;;;32.30;28.00;;;;;;6256351;28;20049;-80
2022/05/31 13:02:20;;;;;;;1.23;0.50;;;32.50;27.30;;;;;;6251669;28;20057;-80
2022/05/31 13:05:37;;;;;;;1.80;0.45;;;32.70;27.30;;;;;;6251403;28;20045;-80
2022/05/31 13:08:51;;;;;;;2.30;0.53;;;32.90;26.90;;;;;;6232788;28;20131;-80
2022/05/31 13:22:19;;;;;;;2.25;0.45;;;31.50;27.90;;;;;;6254430;28;20420;-81
2022/05/31 13:25:28;;;;;;;1.35;0.40;;;31.70;28.20;;;;;;6254869;28;20214;-81
2022/05/31 13:28:32;;;;;;;3.50;0.52;;;31.90;28.10;;;;;;6254372;28;20133;-81
2022/05/31 13:31:45;;;;;;;1.50;0.43;;;32.10;28.70;;;;;;6254439;28;20083;-80
2022/05/31 13:34:49;;;;;;;1.42;0.52;;;32.00;27.30;;;;;;6254597;28;20075;-80
2022/05/31 13:37:56;;;;;;;2.40;0.60;;;31.80;28.00;;;;;;6254043;28;20045;-80
2022/05/31 13:41:01;;;;;;;3.03;0.50;;;31.90;27.80;;;;;;6253499;28;20512;-80
2022/05/31 13:44:07;;;;;;;0.98;0.50;;;31.90;27.40;;;;;;6252852;28;20069;-81
2022/05/31 13:47:12;;;;;;;3.13;0.68;;;31.60;27.70;;;;;;6253542;28;20047;-80
2022/05/31 13:50:18;;;;;;;3.55;0.88;;;31.80;28.50;;;;;;6256348;28;20059;-80
2022/05/31 13:53:21;;;;;;;2.08;0.52;;;32.00;28.00;;;;;;6253995;28;20110;-80
2022/05/31 13:56:25;;;;;;;10.00;0.70;;;32.20;27.60;;;;;;6255393;28;20072;-80
2022/05/31 13:59:32;;;;;;;2.45;0.50;;;32.30;27.60;;;;;;6254352;28;20120;-80
2022/05/31 14:02:49;;;;;;;1.05;0.55;;;32.50;27.60;;;;;;6255339;28;20050;-80
2022/05/31 14:05:59;;;;;;;1.60;0.47;;;32.60;27.40;;;;;;6254666;28;20057;-80
2022/05/31 14:09:02;;;;;;;2.45;0.28;;;32.20;27.00;;;;;;6253360;28;20076;-80
2022/05/31 14:12:07;;;;;;;3.05;0.93;;;31.60;26.90;;;;;;6253323;28;20053;-81
2022/05/31 14:15:21;;;;;;;1.13;0.50;;;31.10;27.60;;;;;;6253880;28;20107;-80
2022/05/31 14:18:22;;;;;;;2.72;0.60;;;30.50;27.80;;;;;;6252014;28;20128;-78
2022/05/31 14:21:28;;;;;;;0.70;0.30;;;30.10;28.00;;;;;;6253248;28;20041;-81
2022/05/31 14:24:33;;;;;;;2.30;0.63;;;29.70;28.50;;;;;;6253042;28;20049;-80
2022/05/31 14:27:35;;;;;;;2.70;0.40;;;29.30;28.70;;;;;;6253402;28;20057;-80
2022/05/31 14:30:48;;;;;;;4.20;0.52;;;29.00;28.80;;;;;;6252650;28;20147;-80
2022/05/31 14:33:50;;;;;;;2.67;0.40;;;28.80;29.30;;;;;;6252144;28;20100;-80
2022/05/31 14:36:56;;;;;;;2.97;0.35;;;28.50;29.70;;;;;;6251120;28;20072;-79
2022/05/31 14:40:04;;;;;;;1.65;0.57;;;28.50;30.00;;;;;;6251872;28;20042;-80
2022/05/31 14:43:09;;;;;;;1.70;0.52;;;28.60;29.50;;;;;;6260241;23;20050;-82
2022/05/31 14:46:25;;;;;;;5.63;0.60;;;28.80;29.50;;;;;;6260317;28;20052;-83
2022/05/31 14:49:28;;;;;;;1.83;0.47;;;28.90;29.30;;;;;;6253780;28;20101;-81
2022/05/31 14:52:40;;;;;;;2.47;0.20;;;28.90;29.30;;;;;;6256603;28;20115;-83
2022/05/31 14:55:44;;;;;;;1.73;0.57;;;29.10;29.30;;;;;;6260179;28;20053;-81
2022/05/31 14:58:47;;;;;;;1.45;0.45;;;29.20;29.10;;;;;;6257730;28;20457;-83
2022/05/31 15:01:51;;;;;;;1.50;0.80;;;29.30;29.30;;;;;;6259164;28;20063;-83
2022/05/31 15:04:55;;;;;;;29.98;21.00;;;29.50;29.50;;;;;;6258495;28;20139;-84
2022/05/31 15:08:01;;;;;;;5.65;0.80;;;29.60;29.40;;;;;;6260024;28;20046;-82
2022/05/31 15:21:05;;;;;;;3.45;0.50;;;29.50;29.30;;;;;;6259692;28;20041;-81
2022/05/31 15:24:25;;;;;;;1.38;0.40;;;29.40;29.40;;;;;;6260805;28;20053;-82
2022/05/31 15:27:30;;;;;;;4.60;1.60;;;29.20;29.60;;;;;;6261472;28;20077;-82
2022/05/31 15:30:32;;;;;;;1.33;0.63;;;29.10;29.80;;;;;;6261235;28;20053;-83
2022/05/31 15:33:34;;;;;;;2.78;0.50;;;29.00;29.80;;;;;;6260522;28;20052;-82
2022/05/31 15:36:37;;;;;;;1.17;0.45;;;28.90;30.10;;;;;;6258448;28;20073;-82
2022/05/31 15:39:41;;;;;;;1.27;0.40;;;28.90;29.90;;;;;;6257704;28;20045;-84
2022/05/31 15:42:43;;;;;;;2.25;0.82;;;28.90;29.70;;;;;;6248604;28;20136;-81
2022/05/31 15:45:44;;;;;;;2.80;1.17;;;28.80;30.00;;;;;;6233825;28;20078;-82
2022/05/31 15:48:46;;;;;;;1.90;0.60;;;28.80;30.00;;;;;;6231520;28;20050;-82
2022/05/31 15:51:48;;;;;;;1.40;0.52;;;28.90;30.00;;;;;;6228572;28;20050;-83
2022/05/31 15:54:55;;;;;;;2.95;1.10;;;29.00;29.80;;;;;;6227932;28;20046;-83
2022/05/31 15:57:59;;;;;;;2.55;0.60;;;29.10;29.70;;;;;;6227090;28;20429;-83
2022/05/31 16:01:00;;;;;;;1.55;0.88;;;29.10;29.80;;;;;;6225050;28;20398;-86
2022/05/31 16:04:03;;;;;;;1.90;0.98;;;29.00;29.70;;;;;;6223294;28;20180;-87
2022/05/31 16:07:08;;;;;;;2.72;0.85;;;28.80;29.90;;;;;;6226287;28;20045;-84
2022/05/31 16:10:15;;;;;;;3.50;1.10;;;28.50;30.30;;;;;;6230070;28;20076;-85
2022/05/31 16:13:17;;;;;;;8.60;5.60;;;28.30;30.90;;;;;;6246800;28;20132;-86
2022/05/31 16:16:19;;;;;;;5.55;2.65;;;28.10;31.00;;;;;;6247719;28;20352;-83
2022/05/31 16:19:21;;;;;;;1.17;0.50;;;28.00;31.00;;;;;;6252083;28;20041;-82
2022/05/31 16:22:24;;;;;;;4.38;0.75;;;28.00;30.70;;;;;;6255045;28;20049;-80
2022/05/31 16:25:28;;;;;;;7.30;0.40;;;27.90;30.70;;;;;;6248409;28;20072;-86
2022/05/31 16:28:30;;;;;;;3.20;1.55;;;28.00;31.20;;;;;;6248700;28;20579;-85
2022/05/31 16:31:32;;;;;;;1.55;0.40;;;28.10;30.80;;;;;;6250352;28;20049;-82
2022/05/31 16:34:35;;;;;;;0.82;0.40;;;28.30;30.50;;;;;;6253058;28;20084;-82
2022/05/31 16:41:14;;;;;;;1.67;0.50;;;28.60;30.40;;;;;;6252996;28;20038;-83
2022/05/31 16:44:16;;;;;;;2.20;0.60;;;28.70;30.00;;;;;;6233422;28;20060;-83
2022/05/31 16:47:18;;;;;;;3.65;0.60;;;28.70;30.00;;;;;;6253878;28;20047;-83
2022/05/31 16:50:20;;;;;;;1.35;0.65;;;28.50;30.20;;;;;;6250047;28;20092;-84
2022/05/31 16:53:22;;;;;;;1.08;0.40;;;28.30;29.90;;;;;;6251643;28;20308;-81
2022/05/31 16:56:29;;;;;;;3.30;1.65;;;28.10;30.10;;;;;;6253588;28;20077;-83